createdAt,value
2018-07-23T13:04:42.525Z,95706.50
2018-07-23T13:53:44.832Z,95711.63
2018-07-23T13:57:12.974Z,95707.16
2018-07-23T13:59:42.413Z,95680.68
2018-07-23T14:02:14.429Z,95684.92
2018-07-23T14:04:43.344Z,95684.74
2018-07-23T14:07:12.138Z,95683.39
2018-07-23T14:09:41.309Z,95681.27
2018-07-23T14:12:10.518Z,95671.70
2018-07-23T14:14:39.317Z,95673.67
2018-07-23T14:19:59.255Z,95668.84
2018-07-23T14:22:28.523Z,95674.87
2018-07-23T14:24:57.966Z,95671.89
2018-07-23T14:27:26.800Z,95665.86
2018-07-23T14:29:55.956Z,95658.81
2018-07-23T14:32:25.184Z,95664.19
2018-07-23T14:34:54.091Z,95662.92
2018-07-23T14:37:22.908Z,95664.97
2018-07-23T14:39:51.732Z,95668.33
2018-07-23T14:42:20.903Z,95667.48
2018-07-23T14:44:49.920Z,95662.22
2018-07-23T14:47:18.804Z,95665.97
2018-07-23T14:49:48.033Z,95668.34
2018-07-23T14:52:17.324Z,95665.47
2018-07-23T14:54:46.829Z,95662.70
2018-07-23T14:57:15.963Z,95659.19
2018-07-23T14:59:44.803Z,95660.77
2018-07-23T15:02:14.228Z,95665.03
2018-07-23T15:04:43.030Z,95658.40
2018-07-23T15:07:12.180Z,95657.27
2018-07-23T15:09:42.240Z,95656.42
2018-07-23T15:12:11.434Z,95656.74
2018-07-23T15:14:40.571Z,95659.72
2018-07-23T15:17:10.297Z,95655.72
2018-07-23T15:19:39.137Z,95661.71
2018-07-23T15:22:07.938Z,95666.61
2018-07-23T15:24:37.084Z,95659.44
2018-07-23T15:27:06.309Z,95661.33
2018-07-23T15:29:35.153Z,95662.81
2018-07-23T15:32:04.181Z,95659.32
2018-07-23T15:34:33.567Z,95669.02
2018-07-23T15:37:02.364Z,95662.80
2018-07-23T15:39:31.180Z,95664.63
2018-07-23T15:42:01.650Z,95667.53
2018-07-23T15:44:31.074Z,95669.56
2018-07-23T15:47:00.213Z,95658.64
2018-07-23T15:49:29.820Z,95659.56
2018-07-23T15:51:58.658Z,95661.47
2018-07-23T15:54:28.096Z,95659.91
2018-07-23T15:56:57.512Z,95660.91
2018-07-23T15:59:26.313Z,95657.73
2018-07-23T16:01:55.283Z,95657.20
2018-07-23T16:04:24.523Z,95654.23
2018-07-23T16:06:53.660Z,95654.23
2018-07-23T16:09:23.380Z,95651.20
2018-07-23T16:11:52.184Z,95649.63
2018-07-23T16:14:20.998Z,95650.38
2018-07-23T16:16:50.181Z,95647.17
2018-07-23T16:19:19.487Z,95646.83
2018-07-23T16:21:48.268Z,95649.37
2018-07-23T16:24:17.340Z,95643.17
2018-07-23T16:26:46.144Z,95635.78
2018-07-23T16:29:15.321Z,95637.19
2018-07-23T16:31:44.376Z,95633.09
2018-07-23T16:34:13.177Z,95633.95
2018-07-23T16:36:44.207Z,95632.61
2018-07-23T16:39:14.339Z,95633.91
2018-07-23T16:41:43.811Z,95633.63
2018-07-23T16:44:12.599Z,95639.70
2018-07-23T16:46:41.980Z,95632.38
2018-07-23T16:49:15.860Z,95631.11
2018-07-23T16:51:44.998Z,95632.92
2018-07-23T16:54:13.854Z,95635.41
2018-07-23T16:56:42.808Z,95640.77
2018-07-23T16:59:11.618Z,95642.90
2018-07-23T17:01:40.636Z,95649.67
2018-07-23T17:04:09.443Z,95652.92
2018-07-23T17:06:38.627Z,95651.83
2018-07-23T17:09:09.196Z,95648.30
2018-07-23T17:11:38.351Z,95654.83
2018-07-23T17:14:07.895Z,95660.13
2018-07-23T17:16:37.035Z,95664.91
2018-07-23T17:19:06.778Z,95672.44
2018-07-23T17:21:35.805Z,95674.42
2018-07-23T17:24:07.551Z,95677.59
2018-07-23T17:26:37.128Z,95676.02
2018-07-23T17:29:05.932Z,95677.75
2018-07-23T17:31:34.948Z,95670.60
2018-07-23T17:34:05.729Z,95677.73
2018-07-23T17:36:37.161Z,95672.28
2018-07-23T17:39:09.252Z,95670.22
2018-07-23T17:41:38.385Z,95678.30
2018-07-23T17:44:07.628Z,95686.16
2018-07-23T17:46:38.072Z,95693.59
2018-07-23T17:49:09.008Z,95696.30
2018-07-23T17:51:37.828Z,95708.03
2018-07-23T17:54:07.295Z,95721.67
2018-07-23T17:56:36.655Z,95734.08
2018-07-23T17:59:05.823Z,95737.20
2018-07-23T18:01:35.241Z,95742.41
2018-07-23T18:04:04.503Z,95747.00
2018-07-23T18:06:33.784Z,95745.42
2018-07-23T18:09:02.668Z,95749.92
2018-07-23T18:11:32.550Z,95753.59
2018-07-23T18:14:04.023Z,95749.56
2018-07-23T18:16:32.888Z,95761.48
2018-07-23T18:19:01.820Z,95767.50
2018-07-23T18:21:55.760Z,95766.78
2018-07-23T18:24:42.899Z,95751.41
2018-07-23T18:27:12.796Z,95754.34
2018-07-23T18:29:42.204Z,95755.05
2018-07-23T18:32:17.030Z,95755.83
2018-07-23T18:34:49.749Z,95756.88
2018-07-23T18:37:19.192Z,95757.37
2018-07-23T18:39:48.276Z,95746.84
2018-07-23T18:42:17.851Z,95756.99
2018-07-23T18:44:46.704Z,95752.73
2018-07-23T18:47:15.528Z,95756.98
2018-07-23T18:49:57.338Z,95756.14
2018-07-23T18:52:50.142Z,95755.88
2018-07-23T18:55:18.992Z,95761.34
2018-07-23T18:57:48.244Z,95768.03
2018-07-23T19:00:17.652Z,95767.85
2018-07-23T19:02:46.487Z,95768.50
2018-07-23T19:05:15.346Z,95769.11
2018-07-23T19:07:44.175Z,95758.02
2018-07-23T19:10:16.154Z,95768.60
2018-07-23T19:12:45.651Z,95773.06
2018-07-23T19:15:14.715Z,95773.70
2018-07-23T19:17:43.572Z,95774.17
2018-07-23T19:20:13.018Z,95778.30
2018-07-23T19:22:44.244Z,95783.58
2018-07-23T19:25:13.374Z,95781.91
2018-07-23T19:27:45.461Z,95783.38
2018-07-23T19:30:14.411Z,95784.05
2018-07-23T19:32:43.539Z,95781.00
2018-07-23T19:35:12.417Z,95787.20
2018-07-23T19:37:43.126Z,95786.58
2018-07-23T19:40:12.464Z,95793.61
2018-07-23T19:42:41.376Z,95801.30
2018-07-23T19:45:10.039Z,95808.45
2018-07-23T19:47:39.557Z,95811.62
2018-07-23T19:50:09.218Z,95822.50
2018-07-23T19:52:39.491Z,95819.47
2018-07-23T19:55:09.014Z,95828.92
2018-07-23T19:57:38.058Z,95825.41
2018-07-23T20:00:13.448Z,95833.89
2018-07-23T20:02:42.379Z,95838.50
2018-07-23T20:05:11.730Z,95838.96
2018-07-23T20:07:44.664Z,95838.11
2018-07-23T20:10:15.430Z,95836.79
2018-07-23T20:12:44.667Z,95828.59
2018-07-23T20:15:15.368Z,95824.27
2018-07-23T20:17:44.568Z,95825.83
2018-07-23T20:20:14.600Z,95827.44
2018-07-23T20:22:44.037Z,95826.41
2018-07-23T20:25:13.565Z,95818.98
2018-07-23T20:27:42.595Z,95820.40
2018-07-23T20:30:11.892Z,95814.83
2018-07-23T20:32:41.501Z,95810.00
2018-07-23T20:35:11.091Z,95806.53
2018-07-23T20:37:50.305Z,95806.45
2018-07-23T20:40:25.597Z,95804.68
2018-07-23T20:42:55.223Z,95804.56
2018-07-23T20:45:25.139Z,95800.56
2018-07-23T20:48:10.847Z,95807.26
2018-07-23T20:50:39.651Z,95805.84
2018-07-23T20:53:09.157Z,95805.71
2018-07-23T20:55:38.104Z,95794.98
2018-07-23T20:58:07.138Z,95790.39
2018-07-23T21:00:36.408Z,95792.48
2018-07-23T21:03:06.973Z,95790.11
2018-07-23T21:05:36.364Z,95788.61
2018-07-23T21:08:05.900Z,95785.48
2018-07-23T21:10:34.760Z,95789.44
2018-07-23T21:13:04.628Z,95783.88
2018-07-23T21:15:33.883Z,95780.25
2018-07-23T21:18:02.804Z,95779.30
2018-07-23T21:20:31.927Z,95783.07
2018-07-23T21:23:02.397Z,95784.63
2018-07-23T21:25:31.487Z,95776.02
2018-07-23T21:28:03.541Z,95775.83
2018-07-23T21:30:33.080Z,95781.20
2018-07-23T21:33:01.987Z,95776.95
2018-07-23T21:35:31.567Z,95777.28
2018-07-23T21:38:00.939Z,95780.55
2018-07-23T21:40:30.715Z,95779.31
2018-07-23T21:42:59.723Z,95786.23
2018-07-23T21:45:28.632Z,95779.39
2018-07-23T21:47:57.505Z,95780.72
2018-07-23T21:50:26.859Z,95784.91
2018-07-23T21:52:56.183Z,95779.80
2018-07-23T21:55:25.375Z,95779.41
2018-07-23T21:57:54.399Z,95784.55
2018-07-23T22:00:23.691Z,95782.97
2018-07-23T22:02:52.907Z,95781.00
2018-07-23T22:05:22.411Z,95785.95
2018-07-23T22:07:51.257Z,95783.89
2018-07-23T22:10:20.157Z,95782.56
2018-07-23T22:12:49.277Z,95776.41
2018-07-23T22:15:18.240Z,95776.19
2018-07-23T22:17:47.433Z,95777.67
2018-07-23T22:20:16.569Z,95772.94
2018-07-23T22:22:46.781Z,95772.14
2018-07-23T22:28:27.160Z,95770.87
2018-07-23T22:30:56.351Z,95763.75
2018-07-23T22:33:25.180Z,95764.98
2018-07-23T22:35:54.367Z,95763.47
2018-07-23T22:38:23.511Z,95764.14
2018-07-23T22:40:52.371Z,95756.83
2018-07-23T22:43:21.755Z,95765.81
2018-07-23T22:45:54.434Z,95765.17
2018-07-23T22:48:29.352Z,95766.81
2018-07-23T22:50:58.308Z,95763.90
2018-07-23T22:53:40.248Z,95765.29
2018-07-23T22:56:09.766Z,95765.62
2018-07-23T22:58:38.580Z,95765.09
2018-07-23T23:01:07.414Z,95765.90
2018-07-23T23:03:36.255Z,95757.61
2018-07-23T23:06:05.412Z,95760.09
2018-07-23T23:08:34.230Z,95764.69
2018-07-23T23:11:03.251Z,95767.05
2018-07-23T23:13:32.890Z,95766.01
2018-07-23T23:16:02.285Z,95758.84
2018-07-23T23:18:31.149Z,95757.34
2018-07-23T23:21:00.357Z,95757.25
2018-07-23T23:23:29.535Z,95754.09
2018-07-23T23:25:58.359Z,95751.09
2018-07-23T23:28:27.736Z,95752.25
2018-07-23T23:30:56.576Z,95745.25
2018-07-23T23:33:31.184Z,95742.17
2018-07-23T23:36:00.560Z,95738.08
2018-07-23T23:38:29.377Z,95738.45
2018-07-23T23:40:58.195Z,95740.50
2018-07-23T23:43:28.168Z,95736.91
2018-07-23T23:45:56.975Z,95730.63
2018-07-23T23:48:30.274Z,95725.17
2018-07-23T23:50:59.145Z,95732.40
2018-07-23T23:53:28.264Z,95727.98
2018-07-23T23:55:57.692Z,95727.53
2018-07-23T23:58:26.944Z,95726.05
